Time;durP1;ratioP1;P1;durP2;ratioP2;P2;SDS_P1;SDS_P2;PMS_P1;PMS_P2;Temp;Humidity;BMP_temperature;BMP_pressure;BME280_temperature;BME280_humidity;BME280_pressure;Samples;Min_cycle;Max_cycle;Signal;HPM_P1;HPM_P2
2023/02/28 00:01:24;;;;;;;13.60;6.00;;;3.70;89.50;;;;;;4900507;29;20459;-74
2023/02/28 00:03:50;;;;;;;12.10;6.85;;;3.70;89.60;;;;;;4896658;29;20043;-74
2023/02/28 00:06:15;;;;;;;13.75;6.03;;;3.80;89.50;;;;;;4892692;29;20112;-74
2023/02/28 00:08:41;;;;;;;12.77;6.15;;;3.80;89.40;;;;;;4893483;29;20495;-74
2023/02/28 00:11:11;;;;;;;10.63;6.00;;;3.90;89.40;;;;;;4899690;29;20031;-74
2023/02/28 00:13:40;;;;;;;11.77;6.15;;;3.90;89.70;;;;;;4897864;29;20040;-74
2023/02/28 00:16:09;;;;;;;10.60;5.80;;;4.00;89.10;;;;;;4895948;29;20028;-74
2023/02/28 00:18:35;;;;;;;12.50;5.78;;;4.00;89.00;;;;;;4902822;29;20480;-74
2023/02/28 00:21:01;;;;;;;11.38;6.63;;;4.10;89.10;;;;;;4895592;29;20056;-74
2023/02/28 00:23:27;;;;;;;10.70;6.65;;;4.00;89.10;;;;;;4901531;29;20103;-74
2023/02/28 00:25:53;;;;;;;9.68;6.05;;;4.00;89.60;;;;;;4899369;29;20040;-74
2023/02/28 00:28:19;;;;;;;11.48;6.22;;;4.10;89.90;;;;;;4902093;29;20452;-74
2023/02/28 00:30:45;;;;;;;15.00;6.75;;;4.10;89.50;;;;;;4900806;29;20048;-74
2023/02/28 00:33:11;;;;;;;11.80;6.25;;;4.20;89.80;;;;;;4903427;29;20031;-74
2023/02/28 00:35:37;;;;;;;13.45;6.40;;;4.10;89.50;;;;;;4898302;29;20060;-74
2023/02/28 00:38:02;;;;;;;13.95;6.53;;;4.10;89.60;;;;;;4893794;29;20190;-74
2023/02/28 00:40:29;;;;;;;12.82;6.50;;;4.00;89.70;;;;;;4895198;29;20036;-74
2023/02/28 00:42:55;;;;;;;10.77;6.50;;;3.90;89.80;;;;;;4906327;29;20095;-74
2023/02/28 00:45:21;;;;;;;13.02;5.90;;;3.90;89.60;;;;;;4909782;29;20036;-74
2023/02/28 00:47:49;;;;;;;12.35;6.75;;;4.10;89.90;;;;;;4900792;29;20033;-74
2023/02/28 00:50:24;;;;;;;11.13;6.05;;;4.00;89.70;;;;;;4906436;29;20040;-74
2023/02/28 00:52:50;;;;;;;11.35;6.57;;;4.00;89.80;;;;;;4902810;29;20040;-74
2023/02/28 00:55:15;;;;;;;10.73;5.03;;;4.00;90.00;;;;;;4906428;29;20095;-74
2023/02/28 00:57:41;;;;;;;11.13;5.65;;;4.10;90.00;;;;;;4904269;29;20028;-74
2023/02/28 01:00:08;;;;;;;14.23;7.20;;;4.10;90.00;;;;;;4905653;29;20058;-74
2023/02/28 01:02:34;;;;;;;13.98;6.53;;;4.30;89.70;;;;;;4914176;29;20372;-74
2023/02/28 01:05:00;;;;;;;13.27;6.75;;;4.30;89.30;;;;;;4901282;29;20044;-74
2023/02/28 01:07:25;;;;;;;10.80;6.32;;;4.30;89.30;;;;;;4900177;29;21163;-74
2023/02/28 01:09:51;;;;;;;10.52;6.57;;;4.40;89.10;;;;;;4896387;29;20460;-74
2023/02/28 01:12:17;;;;;;;12.80;6.45;;;4.40;89.00;;;;;;4912729;29;20032;-74
2023/02/28 01:14:43;;;;;;;12.95;6.18;;;4.30;88.90;;;;;;4908772;29;20494;-74
2023/02/28 01:17:09;;;;;;;14.93;7.22;;;4.30;89.10;;;;;;4900950;29;20479;-74
2023/02/28 01:19:35;;;;;;;10.85;6.03;;;4.30;89.50;;;;;;4909948;29;20066;-74
2023/02/28 01:22:05;;;;;;;13.80;7.03;;;4.30;89.20;;;;;;4902187;29;20064;-74
2023/02/28 01:24:32;;;;;;;16.00;7.88;;;4.40;89.30;;;;;;4903690;29;20516;-74
2023/02/28 01:26:57;;;;;;;11.63;6.50;;;4.40;89.00;;;;;;4906514;29;20475;-74
2023/02/28 01:29:23;;;;;;;12.68;7.15;;;4.40;89.00;;;;;;4911240;29;20035;-74
2023/02/28 01:31:49;;;;;;;14.13;7.50;;;4.40;88.70;;;;;;4894577;29;20032;-74
2023/02/28 01:34:14;;;;;;;13.45;7.53;;;4.50;88.70;;;;;;4901214;29;20368;-74
2023/02/28 01:36:40;;;;;;;10.50;6.70;;;4.50;88.80;;;;;;4909020;29;20100;-74
2023/02/28 01:39:06;;;;;;;13.23;7.15;;;4.50;89.00;;;;;;4911944;29;20055;-74
2023/02/28 01:41:34;;;;;;;11.25;7.10;;;4.40;89.30;;;;;;4904544;29;20115;-74
2023/02/28 01:44:03;;;;;;;12.80;7.28;;;4.40;88.60;;;;;;4905142;29;20084;-74
2023/02/28 01:46:30;;;;;;;11.23;6.15;;;4.50;88.90;;;;;;4905496;29;20558;-74
2023/02/28 01:49:05;;;;;;;10.63;5.82;;;4.40;89.10;;;;;;4898067;29;20053;-74
2023/02/28 01:51:45;;;;;;;15.02;7.70;;;4.50;88.90;;;;;;4910178;29;20033;-74
2023/02/28 01:54:16;;;;;;;14.73;7.70;;;4.50;89.00;;;;;;4897571;29;20023;-74
2023/02/28 01:56:54;;;;;;;14.02;7.47;;;4.60;88.70;;;;;;4897575;29;20564;-74
2023/02/28 01:59:32;;;;;;;12.25;7.15;;;4.60;88.50;;;;;;4895045;29;20033;-74
2023/02/28 02:01:58;;;;;;;14.95;7.30;;;4.50;88.60;;;;;;4906698;29;20035;-74
2023/02/28 02:04:30;;;;;;;12.10;7.15;;;4.40;89.20;;;;;;4895156;29;20040;-74
2023/02/28 02:06:57;;;;;;;11.95;6.95;;;4.50;89.70;;;;;;4907724;29;20032;-74
2023/02/28 02:09:23;;;;;;;12.68;7.15;;;4.50;89.10;;;;;;4902850;29;20053;-74
2023/02/28 02:11:49;;;;;;;13.52;7.88;;;4.60;88.70;;;;;;4904062;29;20025;-74
2023/02/28 02:14:34;;;;;;;13.75;7.55;;;4.70;88.50;;;;;;4896510;29;20040;-74
2023/02/28 02:16:59;;;;;;;12.55;7.82;;;4.70;88.00;;;;;;4897313;29;20091;-75
2023/02/28 02:20:03;;;;;;;12.18;7.32;;;4.50;88.30;;;;;;4905519;29;20479;-74
2023/02/28 02:23:01;;;;;;;14.95;7.13;;;4.60;87.80;;;;;;4907153;29;20378;-74
2023/02/28 02:25:58;;;;;;;14.23;7.63;;;4.60;87.80;;;;;;4900675;29;20100;-74
2023/02/28 02:28:56;;;;;;;10.90;7.28;;;4.70;87.50;;;;;;4904109;29;20037;-74
2023/02/28 02:31:24;;;;;;;10.98;6.45;;;4.70;87.40;;;;;;4909920;29;20036;-74
2023/02/28 02:34:08;;;;;;;12.55;7.20;;;4.70;87.60;;;;;;4900077;29;20032;-74
2023/02/28 02:36:42;;;;;;;12.43;6.75;;;4.70;87.80;;;;;;4906506;29;20468;-74
2023/02/28 02:39:31;;;;;;;13.87;6.80;;;4.70;87.80;;;;;;4893514;29;20059;-74
2023/02/28 02:42:03;;;;;;;14.32;7.30;;;4.70;87.70;;;;;;4911135;29;20040;-74
2023/02/28 02:44:40;;;;;;;10.23;6.20;;;4.60;87.50;;;;;;4894435;29;20049;-74
2023/02/28 02:47:13;;;;;;;11.20;6.43;;;4.60;87.60;;;;;;4901026;29;20480;-74
2023/02/28 02:49:46;;;;;;;10.88;6.15;;;4.60;87.90;;;;;;4914208;29;20047;-74
2023/02/28 02:52:14;;;;;;;12.45;6.80;;;4.60;87.80;;;;;;4907420;29;20041;-74
2023/02/28 02:54:43;;;;;;;12.20;7.47;;;4.60;87.50;;;;;;4910804;29;20044;-74
2023/02/28 02:57:21;;;;;;;12.55;7.15;;;4.70;87.30;;;;;;4897711;29;23649;-74
2023/02/28 02:59:49;;;;;;;11.05;6.30;;;4.60;87.50;;;;;;4896078;29;20064;-74
2023/02/28 03:02:16;;;;;;;12.70;7.22;;;4.50;87.40;;;;;;4901813;29;20510;-74
2023/02/28 03:05:07;;;;;;;13.20;6.93;;;4.50;87.60;;;;;;4901430;29;20549;-74
2023/02/28 03:07:33;;;;;;;12.63;7.65;;;4.60;87.30;;;;;;4902332;29;20043;-74
2023/02/28 03:09:59;;;;;;;11.38;6.80;;;4.50;87.90;;;;;;4903993;29;20037;-74
2023/02/28 03:12:39;;;;;;;10.45;6.57;;;4.40;88.10;;;;;;4906071;29;20056;-74
2023/02/28 03:15:13;;;;;;;11.75;7.18;;;4.50;87.70;;;;;;4904477;29;20028;-74
2023/02/28 03:17:49;;;;;;;14.73;7.00;;;4.50;87.90;;;;;;4905684;29;20075;-74
2023/02/28 03:20:27;;;;;;;11.15;6.63;;;4.60;87.90;;;;;;4901750;29;20498;-74
2023/02/28 03:23:42;;;;;;;12.43;7.63;;;4.60;87.60;;;;;;4910219;29;20036;-74
2023/02/28 03:26:18;;;;;;;13.65;7.45;;;4.60;88.00;;;;;;4832876;29;20045;-74
2023/02/28 03:29:07;;;;;;;11.18;6.75;;;4.60;87.70;;;;;;4832764;29;20030;-74
2023/02/28 03:31:39;;;;;;;12.73;7.07;;;4.50;88.00;;;;;;4879554;29;20525;-74
2023/02/28 03:34:13;;;;;;;12.32;7.43;;;4.50;88.10;;;;;;4901054;29;20031;-74
2023/02/28 03:36:45;;;;;;;11.32;6.78;;;4.50;87.90;;;;;;4898373;29;20039;-74
2023/02/28 03:39:25;;;;;;;11.02;6.63;;;4.50;87.70;;;;;;4895209;29;20021;-74
2023/02/28 03:42:06;;;;;;;12.63;7.28;;;4.50;87.80;;;;;;4896371;29;20147;-74
2023/02/28 03:44:37;;;;;;;11.05;7.03;;;4.40;88.00;;;;;;4894784;29;20068;-74
2023/02/28 03:47:31;;;;;;;12.93;7.15;;;4.30;88.10;;;;;;4911144;29;20036;-74
2023/02/28 03:50:12;;;;;;;12.55;7.82;;;4.40;88.10;;;;;;4905926;29;20580;-73
2023/02/28 03:52:46;;;;;;;11.60;6.68;;;4.30;88.20;;;;;;4911974;29;20498;-74
2023/02/28 03:55:14;;;;;;;13.70;7.25;;;4.40;88.20;;;;;;4902420;29;20036;-74
2023/02/28 03:58:07;;;;;;;12.75;7.50;;;4.30;88.20;;;;;;4909565;29;20039;-74
2023/02/28 04:00:40;;;;;;;13.02;6.70;;;4.30;88.30;;;;;;4900209;29;20035;-74
2023/02/28 04:03:06;;;;;;;11.10;6.22;;;4.40;88.30;;;;;;4906330;29;20480;-74
2023/02/28 04:05:32;;;;;;;11.45;7.18;;;4.40;88.30;;;;;;4890134;29;25390;-74
2023/02/28 04:08:07;;;;;;;11.82;6.03;;;4.40;88.30;;;;;;4892370;29;20119;-74
2023/02/28 04:10:33;;;;;;;10.73;6.18;;;4.30;88.60;;;;;;4897096;29;20039;-74
2023/02/28 04:12:58;;;;;;;10.07;6.55;;;4.40;88.40;;;;;;4898546;29;20072;-74
2023/02/28 04:15:24;;;;;;;11.48;7.20;;;4.40;88.60;;;;;;4897672;29;20032;-74
2023/02/28 04:17:50;;;;;;;10.98;6.53;;;4.40;88.10;;;;;;4903211;29;20051;-74
2023/02/28 04:20:16;;;;;;;13.48;6.00;;;4.30;88.10;;;;;;4901163;29;20038;-75
2023/02/28 04:22:42;;;;;;;13.38;7.10;;;4.20;88.00;;;;;;4895736;29;20032;-74
2023/02/28 04:25:08;;;;;;;12.88;7.03;;;4.30;88.70;;;;;;4901731;29;20044;-75
2023/02/28 04:27:34;;;;;;;11.68;6.35;;;4.30;88.70;;;;;;4903256;29;20036;-74
2023/02/28 04:29:59;;;;;;;11.43;7.00;;;4.40;89.30;;;;;;4903223;29;20032;-75
2023/02/28 04:32:25;;;;;;;11.07;6.07;;;4.40;90.00;;;;;;4891685;29;20037;-74
2023/02/28 04:34:51;;;;;;;12.77;6.78;;;4.20;89.10;;;;;;4903325;29;20043;-74
2023/02/28 04:37:16;;;;;;;12.55;6.32;;;4.20;89.50;;;;;;4888583;29;20095;-74
2023/02/28 04:39:43;;;;;;;9.45;5.50;;;4.20;89.50;;;;;;4902760;29;20054;-74
2023/02/28 04:42:09;;;;;;;14.63;6.90;;;4.30;88.00;;;;;;4896898;29;20075;-74
2023/02/28 04:44:35;;;;;;;12.18;5.93;;;4.20;89.20;;;;;;4897031;29;20041;-74
2023/02/28 04:47:00;;;;;;;11.00;5.47;;;4.30;88.80;;;;;;4896837;29;20039;-74
2023/02/28 04:49:26;;;;;;;12.65;6.75;;;4.10;87.80;;;;;;4891337;29;20061;-74
2023/02/28 04:51:52;;;;;;;9.80;6.00;;;4.20;88.30;;;;;;4894419;29;20037;-74
2023/02/28 04:54:18;;;;;;;12.85;6.65;;;4.00;88.30;;;;;;4897157;29;20043;-74
2023/02/28 04:56:44;;;;;;;12.63;7.38;;;3.80;89.10;;;;;;4904480;29;20394;-74
2023/02/28 04:59:10;;;;;;;10.57;6.07;;;3.80;89.20;;;;;;4903200;29;20471;-74
2023/02/28 05:01:36;;;;;;;9.68;6.07;;;3.80;89.30;;;;;;4890165;29;20029;-75
2023/02/28 05:04:04;;;;;;;11.88;6.90;;;3.80;89.40;;;;;;4889585;29;20606;-74
2023/02/28 05:06:32;;;;;;;9.88;5.97;;;3.80;89.40;;;;;;4897588;29;20033;-74
2023/02/28 05:08:58;;;;;;;11.00;6.10;;;3.90;89.50;;;;;;4908451;29;20046;-74
2023/02/28 05:11:35;;;;;;;10.43;6.57;;;3.90;89.50;;;;;;4909292;29;20036;-74
2023/02/28 05:14:07;;;;;;;11.00;6.55;;;3.80;89.70;;;;;;4897935;29;20431;-74
2023/02/28 05:16:32;;;;;;;14.70;6.18;;;3.70;90.00;;;;;;4897107;29;20028;-74
2023/02/28 05:18:58;;;;;;;11.43;6.50;;;3.60;90.00;;;;;;4897927;29;20036;-74
2023/02/28 05:21:37;;;;;;;11.48;5.90;;;3.50;90.30;;;;;;4899555;29;20093;-74
2023/02/28 05:24:11;;;;;;;13.30;7.45;;;3.60;90.10;;;;;;4900843;29;20034;-74
2023/02/28 05:26:39;;;;;;;12.23;5.35;;;3.60;90.00;;;;;;4894161;29;20036;-74
2023/02/28 05:29:05;;;;;;;12.60;6.47;;;3.60;89.90;;;;;;4897488;29;20029;-74
2023/02/28 05:31:32;;;;;;;10.77;6.65;;;3.40;90.10;;;;;;4893218;29;20032;-74
2023/02/28 05:33:57;;;;;;;12.20;6.78;;;3.40;90.30;;;;;;4897747;29;20031;-74
2023/02/28 05:36:23;;;;;;;10.98;5.85;;;3.40;90.30;;;;;;4898904;29;20075;-74
2023/02/28 05:38:50;;;;;;;9.73;5.57;;;3.20;90.40;;;;;;4900351;29;20457;-74
2023/02/28 05:41:17;;;;;;;10.02;6.32;;;3.20;90.40;;;;;;4897896;29;20043;-74
2023/02/28 05:43:43;;;;;;;11.02;5.88;;;3.20;90.50;;;;;;4894857;29;20060;-74
2023/02/28 05:46:11;;;;;;;12.25;6.93;;;3.20;90.60;;;;;;4892985;29;20103;-74
2023/02/28 05:48:39;;;;;;;10.32;5.55;;;3.20;90.80;;;;;;4895230;29;20389;-74
2023/02/28 05:51:05;;;;;;;12.95;6.60;;;3.20;90.90;;;;;;4898536;29;20036;-74
2023/02/28 05:53:31;;;;;;;11.90;5.88;;;3.30;90.90;;;;;;4895095;29;20067;-75
2023/02/28 05:55:57;;;;;;;12.25;6.65;;;3.20;90.80;;;;;;4896452;29;20032;-74
2023/02/28 05:58:25;;;;;;;10.18;5.53;;;3.10;90.70;;;;;;4899886;29;20036;-74
2023/02/28 06:00:51;;;;;;;12.00;6.43;;;3.00;90.60;;;;;;4894621;29;20120;-74
2023/02/28 06:03:16;;;;;;;10.02;5.38;;;2.90;90.80;;;;;;4898604;29;20028;-74
2023/02/28 06:05:42;;;;;;;12.13;6.85;;;2.60;91.50;;;;;;4895814;29;20056;-74
2023/02/28 06:08:08;;;;;;;9.65;5.47;;;2.50;91.90;;;;;;4895912;29;20109;-74
2023/02/28 06:10:35;;;;;;;11.10;5.68;;;2.20;92.50;;;;;;4890681;29;20037;-74
2023/02/28 06:13:02;;;;;;;10.95;6.28;;;2.40;91.90;;;;;;4903624;29;20064;-74
2023/02/28 06:15:28;;;;;;;10.65;5.55;;;2.30;92.10;;;;;;4898103;29;20607;-74
2023/02/28 06:17:56;;;;;;;14.95;6.32;;;2.30;92.40;;;;;;4895390;29;20041;-74
2023/02/28 06:20:23;;;;;;;11.18;5.10;;;2.30;92.30;;;;;;4903472;29;20097;-74
2023/02/28 06:22:50;;;;;;;12.00;5.93;;;2.20;92.60;;;;;;4902626;29;20028;-74
2023/02/28 06:25:17;;;;;;;15.93;6.63;;;2.00;93.10;;;;;;4901720;29;20033;-74
2023/02/28 06:27:43;;;;;;;10.90;6.72;;;2.10;92.90;;;;;;4900385;29;20563;-73
2023/02/28 06:30:10;;;;;;;13.15;6.65;;;2.30;92.30;;;;;;4901787;29;20083;-73
2023/02/28 06:32:36;;;;;;;10.98;5.53;;;2.20;92.20;;;;;;4898310;29;20036;-75
2023/02/28 06:35:02;;;;;;;12.80;6.75;;;2.20;92.40;;;;;;4899500;29;20036;-74
2023/02/28 06:37:30;;;;;;;11.40;6.85;;;2.20;92.50;;;;;;4906451;29;25237;-75
2023/02/28 06:39:55;;;;;;;14.57;6.35;;;2.20;92.40;;;;;;4899365;29;20559;-75
2023/02/28 06:42:25;;;;;;;11.23;6.50;;;2.20;92.40;;;;;;4909970;29;20091;-77
2023/02/28 06:44:51;;;;;;;12.60;7.70;;;2.30;92.20;;;;;;4903090;29;20057;-74
2023/02/28 06:47:17;;;;;;;14.38;7.78;;;2.30;92.20;;;;;;4899207;29;20032;-76
2023/02/28 06:49:44;;;;;;;10.60;5.88;;;2.30;92.40;;;;;;4900314;29;20163;-76
2023/02/28 06:52:10;;;;;;;8.77;5.47;;;2.30;92.30;;;;;;4898043;29;20028;-76
2023/02/28 06:54:37;;;;;;;12.20;5.85;;;2.40;92.30;;;;;;4894085;29;20093;-75
2023/02/28 06:57:02;;;;;;;12.02;5.63;;;2.40;92.10;;;;;;4896369;29;20435;-76
2023/02/28 06:59:28;;;;;;;11.82;6.72;;;2.40;92.40;;;;;;4895846;29;20115;-75
2023/02/28 07:01:54;;;;;;;9.50;5.32;;;2.30;92.50;;;;;;4895788;29;20040;-75
2023/02/28 07:04:21;;;;;;;10.75;5.88;;;2.30;92.70;;;;;;4899073;29;20033;-76
2023/02/28 07:06:47;;;;;;;11.68;7.60;;;2.40;92.40;;;;;;4900284;29;20036;-75
2023/02/28 07:09:13;;;;;;;13.80;7.30;;;2.70;92.20;;;;;;4896296;29;20403;-76
2023/02/28 07:11:40;;;;;;;13.65;6.57;;;2.90;91.60;;;;;;4898737;29;20040;-75
2023/02/28 07:14:06;;;;;;;14.43;7.40;;;2.90;91.70;;;;;;4901117;29;20044;-76
2023/02/28 07:16:32;;;;;;;11.30;6.50;;;3.00;91.70;;;;;;4894930;29;20032;-76
2023/02/28 07:18:58;;;;;;;14.40;8.25;;;3.10;91.40;;;;;;4894765;29;20103;-76
2023/02/28 07:21:24;;;;;;;17.08;6.75;;;3.20;91.30;;;;;;4898545;29;20034;-75
2023/02/28 07:23:51;;;;;;;14.85;6.68;;;3.40;91.20;;;;;;4898754;29;20074;-76
2023/02/28 07:26:18;;;;;;;17.38;6.90;;;3.40;91.20;;;;;;4893245;29;20041;-76
2023/02/28 07:28:46;;;;;;;13.82;6.90;;;3.50;91.20;;;;;;4893489;29;20646;-76
2023/02/28 07:31:13;;;;;;;12.15;7.40;;;3.50;91.20;;;;;;4898963;29;20084;-76
2023/02/28 07:33:40;;;;;;;13.80;6.65;;;3.70;91.10;;;;;;4897618;29;20032;-75
2023/02/28 07:36:09;;;;;;;11.77;6.68;;;3.70;91.10;;;;;;4898551;29;20027;-76
2023/02/28 07:38:37;;;;;;;12.73;5.90;;;3.60;91.40;;;;;;4896209;29;20040;-76
2023/02/28 07:41:06;;;;;;;12.43;6.80;;;3.60;91.20;;;;;;4895956;29;20100;-76
2023/02/28 07:43:32;;;;;;;10.70;6.43;;;3.70;91.20;;;;;;4898752;29;20028;-76
2023/02/28 07:46:07;;;;;;;12.68;7.18;;;3.80;91.20;;;;;;4892436;29;20044;-76
2023/02/28 07:48:33;;;;;;;13.00;7.05;;;3.80;91.40;;;;;;4899548;29;20039;-76
2023/02/28 07:51:00;;;;;;;13.07;7.03;;;3.90;91.50;;;;;;4895849;29;20047;-76
2023/02/28 07:53:26;;;;;;;12.35;6.50;;;3.70;92.10;;;;;;4897718;29;20379;-75
2023/02/28 07:55:58;;;;;;;26.65;8.00;;;3.60;92.30;;;;;;4899552;29;20040;-79
2023/02/28 07:58:25;;;;;;;16.55;8.23;;;3.60;92.80;;;;;;4897140;29;20036;-77
2023/02/28 08:00:51;;;;;;;16.73;8.13;;;3.50;93.70;;;;;;4896221;29;20047;-77
2023/02/28 08:03:21;;;;;;;13.25;7.13;;;3.40;92.80;;;;;;4898363;29;20024;-75
2023/02/28 08:05:47;;;;;;;14.50;7.22;;;3.40;92.70;;;;;;4903021;29;20048;-79
2023/02/28 08:08:13;;;;;;;14.77;8.32;;;3.50;93.00;;;;;;4896246;29;20033;-78
2023/02/28 08:10:39;;;;;;;13.55;8.13;;;3.50;92.80;;;;;;4898904;29;20032;-76
2023/02/28 08:13:05;;;;;;;13.88;7.90;;;3.40;93.00;;;;;;4902849;29;20396;-77
2023/02/28 08:15:30;;;;;;;20.60;10.68;;;3.40;92.90;;;;;;4894071;29;20195;-77
2023/02/28 08:17:56;;;;;;;19.50;8.85;;;3.50;93.10;;;;;;4901496;29;20029;-75
2023/02/28 08:20:23;;;;;;;23.65;8.70;;;3.40;92.60;;;;;;4903114;29;20120;-76
2023/02/28 08:22:50;;;;;;;24.27;8.75;;;3.50;92.80;;;;;;4903584;29;20024;-76
2023/02/28 08:25:16;;;;;;;12.55;8.15;;;3.80;93.10;;;;;;4905816;29;20076;-76
2023/02/28 08:27:42;;;;;;;18.30;8.05;;;3.80;92.60;;;;;;4902267;29;20126;-74
2023/02/28 08:30:13;;;;;;;15.75;8.75;;;3.80;92.40;;;;;;4897080;29;20040;-76
2023/02/28 08:32:39;;;;;;;13.82;8.95;;;3.80;92.50;;;;;;4890730;29;20071;-75
2023/02/28 08:35:05;;;;;;;14.07;8.00;;;3.90;92.50;;;;;;4891711;29;20554;-74
2023/02/28 08:37:31;;;;;;;14.00;8.05;;;3.80;92.50;;;;;;4889926;29;20028;-74
2023/02/28 08:39:56;;;;;;;10.85;6.55;;;4.00;92.30;;;;;;4897392;29;20047;-75
2023/02/28 08:42:23;;;;;;;11.63;6.15;;;3.90;92.10;;;;;;4899295;29;20047;-75
2023/02/28 08:44:49;;;;;;;11.50;6.57;;;4.10;92.20;;;;;;4902875;29;20324;-74
2023/02/28 08:47:14;;;;;;;12.05;7.25;;;4.10;91.90;;;;;;4894385;29;20035;-75
2023/02/28 08:49:40;;;;;;;12.90;7.88;;;4.30;91.70;;;;;;4906794;29;20202;-74
2023/02/28 08:52:06;;;;;;;14.88;7.40;;;4.40;91.80;;;;;;4901205;29;20571;-74
2023/02/28 08:54:33;;;;;;;13.63;7.68;;;4.50;91.80;;;;;;4892127;29;20373;-74
2023/02/28 08:56:58;;;;;;;12.77;7.65;;;4.50;92.00;;;;;;4889983;29;20341;-74
2023/02/28 08:59:24;;;;;;;11.75;7.10;;;4.60;92.40;;;;;;4888932;29;20040;-74
2023/02/28 09:01:50;;;;;;;11.23;7.38;;;4.80;92.10;;;;;;4894403;29;20221;-73
2023/02/28 09:04:15;;;;;;;13.80;8.13;;;4.80;91.80;;;;;;4897461;29;20029;-72
2023/02/28 09:06:41;;;;;;;13.18;7.53;;;4.80;91.70;;;;;;4896215;29;20044;-73
2023/02/28 09:09:07;;;;;;;13.95;8.35;;;4.90;91.50;;;;;;4903662;29;20047;-74
2023/02/28 09:11:34;;;;;;;12.05;6.95;;;5.00;91.60;;;;;;4903889;29;20028;-73
2023/02/28 09:14:03;;;;;;;12.98;7.88;;;5.10;91.90;;;;;;4889699;29;20060;-73
2023/02/28 09:16:30;;;;;;;16.02;9.35;;;5.50;91.50;;;;;;4907729;29;20035;-73
2023/02/28 09:18:56;;;;;;;14.30;8.35;;;5.30;91.60;;;;;;4896025;29;20557;-73
2023/02/28 09:21:22;;;;;;;14.88;7.15;;;5.10;91.40;;;;;;4903610;29;20024;-73
2023/02/28 09:23:50;;;;;;;13.88;8.18;;;5.10;91.20;;;;;;4900136;29;20067;-74
2023/02/28 09:26:23;;;;;;;14.70;7.75;;;5.10;91.50;;;;;;4890837;29;20075;-73
2023/02/28 09:28:49;;;;;;;13.38;7.57;;;5.30;91.70;;;;;;4889210;29;20047;-73
2023/02/28 09:31:20;;;;;;;9.70;6.22;;;5.40;91.50;;;;;;4896871;29;20519;-73
2023/02/28 09:33:47;;;;;;;13.45;7.13;;;5.50;91.30;;;;;;4905143;29;20028;-73
2023/02/28 09:36:13;;;;;;;13.15;7.68;;;5.60;91.40;;;;;;4899624;29;20126;-74
2023/02/28 09:38:39;;;;;;;11.65;7.88;;;5.70;91.00;;;;;;4901603;29;20032;-73
2023/02/28 09:41:13;;;;;;;11.80;7.25;;;5.90;91.00;;;;;;4894998;29;20072;-72
2023/02/28 09:43:43;;;;;;;16.42;8.13;;;5.60;91.00;;;;;;4891393;29;20032;-73
2023/02/28 09:46:31;;;;;;;12.20;6.68;;;5.60;90.90;;;;;;4898765;29;20044;-72
2023/02/28 09:48:58;;;;;;;11.80;7.22;;;5.80;90.30;;;;;;4897312;29;20099;-72
2023/02/28 09:51:29;;;;;;;11.95;7.03;;;5.90;90.40;;;;;;4893997;29;20105;-73
2023/02/28 09:53:55;;;;;;;12.93;7.07;;;6.00;90.50;;;;;;4889965;29;20035;-75
2023/02/28 09:56:27;;;;;;;12.02;6.20;;;6.10;90.10;;;;;;4888124;29;20033;-76
2023/02/28 09:59:22;;;;;;;11.77;6.82;;;6.20;90.00;;;;;;4897245;29;20029;-73
2023/02/28 10:02:19;;;;;;;13.40;7.55;;;6.30;90.00;;;;;;4901517;29;20032;-75
2023/02/28 10:05:08;;;;;;;12.45;7.22;;;6.40;90.00;;;;;;4890163;29;20443;-76
2023/02/28 10:07:55;;;;;;;12.82;7.20;;;6.30;88.90;;;;;;4900065;29;20575;-77
2023/02/28 10:10:29;;;;;;;15.55;7.70;;;6.40;89.30;;;;;;4893931;29;20523;-75
2023/02/28 10:12:58;;;;;;;12.65;5.93;;;6.70;89.00;;;;;;4905649;29;20048;-76
2023/02/28 10:15:29;;;;;;;9.68;5.57;;;6.70;87.80;;;;;;4906971;29;20024;-75
2023/02/28 10:18:03;;;;;;;11.43;6.68;;;6.60;86.80;;;;;;4898449;29;20036;-75
2023/02/28 10:20:33;;;;;;;12.75;7.00;;;6.60;87.20;;;;;;4898316;29;20092;-75
2023/02/28 10:23:17;;;;;;;12.45;6.78;;;6.90;89.00;;;;;;4909841;29;20036;-75
2023/02/28 10:25:49;;;;;;;12.88;7.18;;;7.10;88.50;;;;;;4902787;29;20379;-75
2023/02/28 10:28:17;;;;;;;16.75;8.18;;;7.10;87.90;;;;;;4904416;29;20476;-75
2023/02/28 10:30:49;;;;;;;16.05;6.40;;;7.00;87.60;;;;;;4910572;29;21752;-75
2023/02/28 10:33:34;;;;;;;13.77;6.93;;;7.00;87.40;;;;;;4905129;29;20103;-75
2023/02/28 10:36:01;;;;;;;15.10;6.22;;;7.00;87.20;;;;;;4905961;29;20374;-74
2023/02/28 10:38:32;;;;;;;11.75;6.35;;;7.00;86.80;;;;;;4896086;29;20071;-74
2023/02/28 10:41:07;;;;;;;9.93;6.13;;;7.40;87.00;;;;;;4900554;29;20055;-75
2023/02/28 10:43:33;;;;;;;15.93;8.13;;;7.70;86.70;;;;;;4902273;29;20028;-76
2023/02/28 10:46:01;;;;;;;12.68;6.43;;;7.80;86.70;;;;;;4899671;29;20119;-75
2023/02/28 10:48:57;;;;;;;13.65;7.60;;;7.80;86.00;;;;;;4896349;29;20039;-76
2023/02/28 10:51:23;;;;;;;11.82;6.82;;;7.80;85.10;;;;;;4890223;29;20148;-75
2023/02/28 10:53:54;;;;;;;11.98;6.85;;;8.10;85.40;;;;;;4899901;29;20458;-76
2023/02/28 10:56:22;;;;;;;14.85;6.30;;;8.30;86.00;;;;;;4897386;29;20142;-74
2023/02/28 10:58:50;;;;;;;23.75;12.45;;;8.30;85.40;;;;;;4894515;29;20615;-75
2023/02/28 11:01:23;;;;;;;14.90;7.43;;;8.40;85.40;;;;;;4902289;29;20055;-76
2023/02/28 11:03:50;;;;;;;14.05;7.82;;;8.50;85.40;;;;;;4899304;29;20032;-76
2023/02/28 11:06:31;;;;;;;17.38;6.80;;;8.60;84.30;;;;;;4899225;29;20499;-76
2023/02/28 11:08:59;;;;;;;12.02;6.68;;;8.60;84.20;;;;;;4902485;29;20060;-75
2023/02/28 11:11:28;;;;;;;10.95;6.32;;;8.30;83.40;;;;;;4902039;29;20394;-76
2023/02/28 11:13:56;;;;;;;13.15;7.22;;;8.50;84.30;;;;;;4898625;29;20487;-76
2023/02/28 11:16:34;;;;;;;11.80;6.20;;;8.40;83.60;;;;;;4902344;29;20043;-75
2023/02/28 11:19:01;;;;;;;14.48;6.20;;;8.50;83.20;;;;;;4902926;29;20097;-75
2023/02/28 11:21:36;;;;;;;10.98;6.90;;;8.50;83.60;;;;;;4906846;29;20134;-76
2023/02/28 11:24:12;;;;;;;9.30;5.65;;;8.60;83.10;;;;;;4906730;29;20107;-76
2023/02/28 11:26:51;;;;;;;8.93;4.88;;;8.60;82.60;;;;;;4902627;29;20040;-76
2023/02/28 11:29:23;;;;;;;9.40;5.68;;;8.80;82.50;;;;;;4902265;29;20036;-76
2023/02/28 11:32:12;;;;;;;10.40;6.10;;;9.00;83.00;;;;;;4900916;29;20035;-76
2023/02/28 11:34:39;;;;;;;16.63;8.15;;;9.10;83.40;;;;;;4906234;29;20032;-76
2023/02/28 11:37:11;;;;;;;9.60;5.65;;;9.30;82.40;;;;;;4903104;29;20036;-75
2023/02/28 11:39:37;;;;;;;65.55;8.52;;;9.40;81.90;;;;;;4903587;29;20055;-75
2023/02/28 11:42:40;;;;;;;12.90;4.95;;;9.30;81.90;;;;;;4900286;29;20468;-75
2023/02/28 11:45:20;;;;;;;13.82;8.40;;;9.60;82.10;;;;;;4904444;29;20122;-75
2023/02/28 11:48:00;;;;;;;16.05;8.20;;;9.90;81.50;;;;;;4908189;29;20055;-75
2023/02/28 11:50:54;;;;;;;21.60;11.70;;;10.00;80.40;;;;;;4906518;29;20172;-75
2023/02/28 11:53:45;;;;;;;15.32;7.20;;;10.20;80.30;;;;;;4900876;29;20094;-74
2023/02/28 11:56:37;;;;;;;11.10;6.28;;;10.30;80.10;;;;;;4899462;29;20033;-75
2023/02/28 11:59:18;;;;;;;24.77;13.18;;;10.60;81.00;;;;;;4901929;29;20111;-75
2023/02/28 12:01:53;;;;;;;12.85;7.60;;;10.40;79.40;;;;;;4901584;29;20640;-75
2023/02/28 12:04:35;;;;;;;14.05;7.22;;;10.10;79.50;;;;;;4900305;29;20020;-76
2023/02/28 12:07:38;;;;;;;12.00;5.95;;;10.20;80.00;;;;;;4898899;29;20105;-76
2023/02/28 12:10:12;;;;;;;11.52;6.68;;;10.20;80.00;;;;;;4876496;29;20135;-74
2023/02/28 12:12:57;;;;;;;;;;;10.30;80.30;;;;;;4898451;29;20661;-75
2023/02/28 12:15:50;;;;;;;10.55;5.47;;;10.10;79.80;;;;;;4893166;29;19911;-74
2023/02/28 12:19:01;;;;;;;9.43;5.57;;;10.10;78.90;;;;;;4891611;29;20436;-73
2023/02/28 12:21:54;;;;;;;9.52;6.43;;;10.20;79.80;;;;;;4890163;29;20124;-78
2023/02/28 12:24:55;;;;;;;9.70;6.50;;;10.70;79.70;;;;;;4900167;29;20031;-76
2023/02/28 12:27:26;;;;;;;12.05;6.40;;;10.80;79.90;;;;;;4864450;29;20041;-75
2023/02/28 12:29:56;;;;;;;12.82;5.78;;;11.20;78.40;;;;;;4895793;29;20519;-74
2023/02/28 12:32:40;;;;;;;10.45;6.10;;;10.90;78.40;;;;;;4899011;29;20467;-76
2023/02/28 12:35:09;;;;;;;11.20;6.43;;;11.00;77.90;;;;;;4903066;29;20088;-75
2023/02/28 12:37:46;;;;;;;8.73;5.28;;;10.70;78.00;;;;;;4905824;29;20092;-76
2023/02/28 12:40:20;;;;;;;8.00;4.90;;;10.70;79.10;;;;;;4905653;29;20067;-75
2023/02/28 12:42:51;;;;;;;10.77;5.75;;;10.70;77.70;;;;;;4903340;29;20040;-75
2023/02/28 12:45:27;;;;;;;12.63;5.10;;;10.60;79.10;;;;;;4901647;29;20407;-75
2023/02/28 12:48:00;;;;;;;9.60;5.15;;;10.80;78.80;;;;;;4905947;29;20024;-76
2023/02/28 12:50:28;;;;;;;8.95;6.22;;;10.90;78.20;;;;;;4908253;29;20054;-76
2023/02/28 12:53:10;;;;;;;10.90;6.22;;;10.80;77.50;;;;;;4908144;29;20044;-76
2023/02/28 12:55:55;;;;;;;10.25;6.90;;;10.70;78.30;;;;;;4902399;29;20088;-77
2023/02/28 12:58:30;;;;;;;12.15;6.78;;;10.80;77.80;;;;;;4901463;29;20059;-76
2023/02/28 13:01:29;;;;;;;10.68;5.40;;;10.80;78.40;;;;;;4903605;29;20088;-75
2023/02/28 13:03:58;;;;;;;9.43;5.25;;;11.10;77.60;;;;;;4900864;29;20032;-75
2023/02/28 13:06:54;;;;;;;8.10;4.20;;;10.90;77.00;;;;;;4895563;29;20036;-75
2023/02/28 13:09:21;;;;;;;10.10;5.75;;;10.90;77.60;;;;;;4895247;29;20052;-75